Time;durP1;ratioP1;P1;durP2;ratioP2;P2;SDS_P1;SDS_P2;PMS_P1;PMS_P2;Temp;Humidity;BMP_temperature;BMP_pressure;BME280_temperature;BME280_humidity;BME280_pressure;Samples;Min_cycle;Max_cycle;Signal;HPM_P1;HPM_P2
2022/04/16 00:01:06;;;;;;;15.40;4.33;;;;;;;17.07;nan;101852.94;4849847;29;20819;-89
2022/04/16 00:04:17;;;;;;;15.30;4.67;;;;;;;17.09;nan;101850.81;4876645;29;20822;-89
2022/04/16 00:06:37;;;;;;;15.37;4.07;;;;;;;17.10;nan;101856.13;4854439;29;20455;-88
2022/04/16 00:09:05;;;;;;;13.50;4.90;;;;;;;16.98;nan;101830.16;4864977;29;20473;-89
2022/04/16 00:11:33;;;;;;;29.37;6.10;;;;;;;17.15;nan;101850.81;4865289;29;20468;-88
2022/04/16 00:14:03;;;;;;;16.50;4.80;;;;;;;17.12;nan;101842.13;4869502;29;20457;-89
2022/04/16 00:16:32;;;;;;;20.43;5.07;;;;;;;17.08;nan;101840.81;4865066;29;20542;-89
2022/04/16 00:19:00;;;;;;;18.93;5.67;;;;;;;17.20;nan;101851.03;4863397;29;20466;-88
2022/04/16 00:21:29;;;;;;;15.30;5.27;;;;;;;17.18;nan;101853.16;4864807;29;20458;-88
2022/04/16 00:23:57;;;;;;;19.17;5.50;;;;;;;17.14;nan;101838.06;4880357;29;20962;-88
2022/04/16 00:26:25;;;;;;;21.03;5.13;;;;;;;17.22;nan;101839.78;4864945;29;20789;-89
2022/04/16 00:28:52;;;;;;;29.70;6.23;;;;;;;17.27;nan;101849.16;4878432;29;20800;-89
2022/04/16 00:31:22;;;;;;;19.67;5.93;;;;;;;17.27;nan;101840.84;4880223;29;20470;-89
2022/04/16 00:33:50;;;;;;;27.13;5.43;;;;;;;17.23;nan;101834.03;4864050;29;20491;-88
2022/04/16 00:36:19;;;;;;;32.40;5.90;;;;;;;17.17;nan;101832.13;4831459;29;20481;-88
2022/04/16 00:38:47;;;;;;;27.67;6.97;;;;;;;17.15;nan;101838.91;4847666;29;20451;-88
2022/04/16 00:41:15;;;;;;;28.33;5.77;;;;;;;17.11;nan;101841.25;4862610;29;20450;-88
2022/04/16 00:43:43;;;;;;;28.63;6.70;;;;;;;17.14;nan;101845.50;4864007;29;20458;-89
2022/04/16 00:46:11;;;;;;;21.40;5.13;;;;;;;17.09;nan;101842.53;4864285;29;20455;-89
2022/04/16 00:48:38;;;;;;;15.87;5.07;;;;;;;17.04;nan;101829.34;4863193;29;20481;-89
2022/04/16 00:51:07;;;;;;;27.23;6.20;;;;;;;17.03;nan;101830.41;4864614;29;20457;-89
2022/04/16 00:53:36;;;;;;;25.70;5.60;;;;;;;17.03;nan;101830.41;4855867;29;20467;-88
2022/04/16 00:56:06;;;;;;;22.00;5.93;;;;;;;17.04;nan;101832.09;4849703;29;20945;-88
2022/04/16 00:58:34;;;;;;;27.00;5.90;;;;;;;16.93;nan;101814.22;4849043;29;20455;-88
2022/04/16 01:01:04;;;;;;;31.37;6.40;;;;;;;16.93;nan;101819.75;4879270;29;20488;-88
2022/04/16 01:03:33;;;;;;;26.97;6.47;;;;;;;16.96;nan;101826.75;4849572;29;20471;-88
2022/04/16 01:06:01;;;;;;;20.43;5.23;;;;;;;16.95;nan;101818.69;4880129;29;20466;-88
2022/04/16 01:08:30;;;;;;;32.07;5.90;;;;;;;16.95;nan;101824.22;4849414;29;20519;-88
2022/04/16 01:10:59;;;;;;;22.70;5.20;;;;;;;16.87;nan;101811.47;4864180;29;20462;-88
2022/04/16 01:13:26;;;;;;;21.47;5.57;;;;;;;16.91;nan;101813.59;4857177;29;20463;-88
2022/04/16 01:15:56;;;;;;;18.50;5.80;;;;;;;16.86;nan;101809.75;4772388;30;20447;-88
2022/04/16 01:18:24;;;;;;;19.97;4.20;;;;;;;16.81;nan;101807.63;4772832;30;20518;-88
2022/04/16 01:20:52;;;;;;;14.23;4.90;;;;;;;16.82;nan;101797.44;4787512;30;20457;-88
2022/04/16 01:23:22;;;;;;;22.43;5.77;;;;;;;16.79;nan;101795.09;4772446;30;20470;-88
2022/04/16 01:25:50;;;;;;;22.30;5.33;;;;;;;16.86;nan;101802.34;4787066;30;20469;-87
2022/04/16 01:29:11;;;;;;;17.67;5.87;;;;;;;16.89;nan;101810.19;4772164;30;21023;-88
2022/04/16 01:36:13;;;;;;;22.07;5.70;;;;;;;16.87;nan;101806.78;4868234;29;20438;-88
2022/04/16 01:54:33;;;;;;;17.67;4.67;;;;;;;16.59;nan;101759.97;4787088;30;20464;-88
2022/04/16 02:12:28;;;;;;;18.80;4.30;;;;;;;16.46;nan;101748.91;4754346;30;20482;-87
2022/04/16 02:22:26;;;;;;;17.87;5.30;;;;;;;16.29;nan;101753.09;4766690;30;20520;-87
2022/04/16 03:26:56;;;;;;;8.67;3.47;;;;;;;15.28;nan;101738.06;4770755;30;20578;-88
2022/04/16 03:36:32;;;;;;;7.57;3.43;;;;;;;15.21;nan;101754.53;4765655;30;20497;-88
2022/04/16 03:39:13;;;;;;;13.77;4.10;;;;;;;15.18;nan;101765.13;4708129;30;20463;-86
2022/04/16 03:42:35;;;;;;;15.13;3.87;;;;;;;15.14;nan;101770.19;4738743;30;20461;-87
2022/04/16 03:52:24;;;;;;;10.33;3.97;;;;;;;14.80;nan;101740.66;4682798;30;20493;-88
2022/04/16 04:02:04;;;;;;;8.73;3.03;;;;;;;14.61;nan;101740.44;4717911;30;20522;-88
2022/04/16 04:08:44;;;;;;;8.07;3.00;;;;;;;14.52;nan;101740.56;4659073;30;20492;-88
2022/04/16 04:12:07;;;;;;;7.27;3.13;;;;;;;14.61;nan;101757.81;4631495;30;20463;-88
2022/04/16 04:30:21;;;;;;;5.77;3.10;;;;;;;14.47;nan;101751.28;4665974;30;20860;-88
2022/04/16 04:41:12;;;;;;;11.93;4.03;;;;;;;14.23;nan;101742.53;4630488;31;20519;-88
2022/04/16 05:17:17;;;;;;;13.73;5.70;;;;;;;13.77;nan;101754.63;4734082;30;20540;-88
2022/04/16 05:23:41;;;;;;;4.10;2.93;;;;;;;13.79;nan;101768.19;4725700;30;20946;-87
2022/04/16 05:27:35;;;;;;;;;;;;;;;;;;;;;
2022/04/16 05:30:34;;;;;;;4.10;2.60;;;;;;;13.62;nan;101773.00;4752525;30;20432;-87
2022/04/16 05:34:20;;;;;;;7.37;2.77;;;;;;;13.70;nan;101788.53;4712491;30;20433;-87
2022/04/16 05:37:35;;;;;;;;;;;;;;;;;;;;;
2022/04/16 05:44:34;;;;;;;10.37;3.70;;;;;;;13.51;nan;101784.44;4732654;30;20471;-87
2022/04/16 05:47:25;;;;;;;10.10;2.80;;;;;;;13.48;nan;101793.06;4710861;30;20929;-87
2022/04/16 05:50:25;;;;;;;7.67;3.30;;;;;;;13.42;nan;101794.69;4692135;30;20509;-87
2022/04/16 06:01:13;;;;;;;11.70;3.60;;;;;;;13.44;nan;101820.06;4689296;30;20528;-89
2022/04/16 06:04:45;;;;;;;7.50;2.93;;;;;;;13.48;nan;101826.00;4711389;30;20464;-88
2022/04/16 06:19:57;;;;;;;6.00;2.47;;;;;;;13.30;nan;101833.72;4663660;30;20550;-88
2022/04/16 06:22:24;;;;;;;7.13;2.60;;;;;;;13.18;nan;101824.25;4644643;30;20865;-87
2022/04/16 06:24:52;;;;;;;6.20;2.90;;;;;;;13.20;nan;101822.16;4693974;30;20471;-87
2022/04/16 06:27:20;;;;;;;4.13;2.40;;;;;;;13.33;nan;101844.34;4686880;30;20459;-87
2022/04/16 06:29:48;;;;;;;5.63;3.00;;;;;;;13.33;nan;101841.59;4701487;30;20470;-87
2022/04/16 06:32:16;;;;;;;6.93;3.00;;;;;;;13.35;nan;101840.38;4700842;30;20476;-87
2022/04/16 06:34:44;;;;;;;7.20;3.23;;;;;;;13.48;nan;101847.97;4700960;30;20541;-87
2022/04/16 06:37:12;;;;;;;4.80;3.13;;;;;;;13.54;nan;101847.25;4684577;30;20532;-87
2022/04/16 06:39:41;;;;;;;7.20;3.40;;;;;;;13.66;nan;101844.91;4782062;29;20523;-87
2022/04/16 06:42:09;;;;;;;5.23;2.80;;;;;;;13.72;nan;101850.50;4760031;29;20454;-87
2022/04/16 06:44:37;;;;;;;8.80;3.47;;;;;;;13.67;nan;101830.97;4756598;30;20461;-87
2022/04/16 06:47:05;;;;;;;8.57;4.00;;;;;;;13.82;nan;101851.09;4794063;29;20458;-87
2022/04/16 06:49:32;;;;;;;5.90;4.13;;;;;;;13.81;nan;101849.38;4759831;29;20463;-87
2022/04/16 06:52:02;;;;;;;7.00;3.43;;;;;;;13.88;nan;101856.84;4760240;29;20465;-87
2022/04/16 06:54:31;;;;;;;8.13;3.23;;;;;;;13.81;nan;101832.91;4774564;29;20504;-87
2022/04/16 06:56:59;;;;;;;8.70;3.80;;;;;;;13.91;nan;101842.75;4774829;29;20454;-87
2022/04/16 06:59:27;;;;;;;6.30;3.80;;;;;;;13.99;nan;101853.66;4760085;29;20462;-87
2022/04/16 07:01:55;;;;;;;12.83;3.30;;;;;;;14.05;nan;101853.72;4767201;29;20996;-88
2022/04/16 07:04:24;;;;;;;9.33;4.10;;;;;;;14.12;nan;101860.19;4843672;29;21015;-88
2022/04/16 07:06:52;;;;;;;7.20;3.60;;;;;;;14.06;nan;101846.34;4829653;29;20455;-88
2022/04/16 07:09:19;;;;;;;6.13;3.53;;;;;;;14.28;nan;101863.78;4829268;29;20827;-89
2022/04/16 07:11:47;;;;;;;6.27;3.80;;;;;;;14.28;nan;101867.38;4844511;29;20463;-88
2022/04/16 07:14:16;;;;;;;8.10;3.87;;;;;;;14.35;nan;101857.34;4828380;29;20443;-89
2022/04/16 07:16:44;;;;;;;7.33;3.80;;;;;;;14.39;nan;101847.66;4796831;29;20452;-88
2022/04/16 07:19:13;;;;;;;8.57;4.00;;;;;;;14.52;nan;101858.00;4838976;29;21002;-88
2022/04/16 07:21:46;;;;;;;8.90;5.90;;;;;;;14.53;nan;101848.72;4834939;29;20461;-88
2022/04/16 07:24:14;;;;;;;16.20;6.73;;;;;;;14.68;nan;101854.16;4846848;29;20522;-88
2022/04/16 07:26:42;;;;;;;10.03;5.40;;;;;;;14.81;nan;101859.84;4862807;29;20451;-88
2022/04/16 07:29:13;;;;;;;11.60;5.57;;;;;;;14.94;nan;101868.25;4847340;29;20462;-89
2022/04/16 07:31:42;;;;;;;10.20;4.83;;;;;;;14.99;nan;101849.25;4862809;29;21065;-88
2022/04/16 07:34:09;;;;;;;12.00;4.73;;;;;;;15.07;nan;101849.09;4847488;29;20458;-88
2022/04/16 07:36:37;;;;;;;10.33;5.20;;;;;;;15.23;nan;101847.13;4847105;29;20455;-87
2022/04/16 07:39:06;;;;;;;10.10;5.10;;;;;;;15.44;nan;101867.25;4863006;29;20486;-89
2022/04/16 07:41:38;;;;;;;24.73;6.60;;;;;;;15.47;nan;101842.06;4833006;29;20462;-88
2022/04/16 07:44:09;;;;;;;10.70;4.67;;;;;;;15.72;nan;101863.72;4828880;29;20467;-88
2022/04/16 07:46:36;;;;;;;9.87;4.10;;;;;;;15.81;nan;101860.59;4869751;29;20495;-88
2022/04/16 07:49:04;;;;;;;7.73;4.50;;;;;;;15.83;nan;101847.47;4850807;29;20454;-88
2022/04/16 07:51:32;;;;;;;10.40;4.50;;;;;;;16.01;nan;101857.13;4865852;29;20451;-88
2022/04/16 07:54:00;;;;;;;7.93;4.03;;;;;;;16.12;nan;101851.06;4846124;29;20950;-88
2022/04/16 07:56:28;;;;;;;6.70;4.07;;;;;;;16.33;nan;101862.00;4862664;29;20565;-88
2022/04/16 07:58:56;;;;;;;7.00;4.00;;;;;;;16.39;nan;101852.88;4872270;29;20482;-88
2022/04/16 08:01:24;;;;;;;7.83;4.33;;;;;;;16.50;nan;101849.53;4850521;29;20457;-87
2022/04/16 08:03:52;;;;;;;7.60;3.70;;;;;;;16.73;nan;101864.97;4865658;29;20454;-88
2022/04/16 08:06:21;;;;;;;9.73;4.47;;;;;;;16.77;nan;101849.66;4850638;29;20477;-89
2022/04/16 08:08:49;;;;;;;9.50;3.67;;;;;;;17.05;nan;101864.19;4866899;29;20448;-88
2022/04/16 08:11:17;;;;;;;6.40;3.73;;;;;;;17.21;nan;101863.78;4853698;29;20525;-88
2022/04/16 08:13:44;;;;;;;5.03;3.63;;;;;;;17.38;nan;101858.72;4868865;29;20458;-88
2022/04/16 08:16:31;;;;;;;14.70;4.43;;;;;;;17.60;nan;101856.59;4868938;29;20953;-90
2022/04/16 08:19:25;;;;;;;6.53;4.27;;;;;;;17.78;nan;101855.97;4868958;29;20526;-87
2022/04/16 08:21:53;;;;;;;8.50;3.73;;;;;;;18.04;nan;101866.16;4865518;29;20454;-86
2022/04/16 08:26:54;;;;;;;11.70;2.93;;;;;;;18.36;nan;101865.22;4862443;29;20467;-87
2022/04/16 08:29:22;;;;;;;6.10;2.97;;;;;;;18.48;nan;101860.69;4831795;29;20939;-86
2022/04/16 08:31:52;;;;;;;11.17;2.70;;;;;;;18.66;nan;101873.88;4863107;29;20515;-87
2022/04/16 08:34:41;;;;;;;6.20;2.97;;;;;;;18.82;nan;101867.00;4846895;29;20463;-87
2022/04/16 08:37:09;;;;;;;5.67;2.70;;;;;;;18.96;nan;101868.59;4861413;29;20454;-87
2022/04/16 08:39:37;;;;;;;15.30;3.77;;;;;;;19.10;nan;101875.75;4853288;29;20460;-87
2022/04/16 08:42:05;;;;;;;5.17;2.70;;;;;;;19.17;nan;101856.34;4842859;29;20967;-87
2022/04/16 08:44:33;;;;;;;7.37;2.73;;;;;;;19.35;nan;101867.50;4813369;29;20460;-87
2022/04/16 08:47:01;;;;;;;3.50;2.43;;;;;;;19.45;nan;101866.97;4842810;29;20840;-87
2022/04/16 08:49:29;;;;;;;6.07;2.50;;;;;;;19.58;nan;101872.47;4829643;29;21061;-87
2022/04/16 08:51:58;;;;;;;5.40;3.20;;;;;;;19.70;nan;101870.66;4846473;29;20455;-87
2022/04/16 08:54:29;;;;;;;4.93;2.40;;;;;;;19.84;nan;101872.22;4847595;29;20459;-86
2022/04/16 08:56:56;;;;;;;6.33;2.43;;;;;;;19.97;nan;101877.69;4851028;29;20439;-86
2022/04/16 08:59:24;;;;;;;6.07;2.70;;;;;;;20.07;nan;101876.28;4861168;29;20488;-86
2022/04/16 09:01:53;;;;;;;7.80;2.33;;;;;;;20.15;nan;101876.84;4861032;29;20466;-86
2022/04/16 09:04:21;;;;;;;7.67;2.23;;;;;;;20.24;nan;101874.59;4781510;30;20463;-87
2022/04/16 09:07:20;;;;;;;4.43;1.87;;;;;;;20.47;nan;101877.59;4757279;30;20536;-87
2022/04/16 09:09:48;;;;;;;4.00;1.97;;;;;;;20.55;nan;101879.22;4772294;30;20466;-87
2022/04/16 09:12:19;;;;;;;3.03;1.87;;;;;;;20.68;nan;101879.88;4772495;30;21059;-87
2022/04/16 09:14:47;;;;;;;6.53;2.20;;;;;;;20.75;nan;101873.41;4756830;30;20479;-88
2022/04/16 09:17:16;;;;;;;5.10;2.30;;;;;;;20.82;nan;101874.16;4801765;29;20466;-90
2022/04/16 09:19:52;;;;;;;5.73;2.20;;;;;;;20.87;nan;101861.25;4801807;29;20505;-91
2022/04/16 09:22:34;;;;;;;4.53;1.70;;;;;;;21.12;nan;101872.25;4792570;29;20457;-87
2022/04/16 09:25:13;;;;;;;4.53;2.10;;;;;;;21.27;nan;101878.25;4875619;29;20451;-90
2022/04/16 09:28:06;;;;;;;3.50;2.10;;;;;;;21.47;nan;101880.72;4845130;29;20488;-90
2022/04/16 09:30:37;;;;;;;8.00;2.53;;;;;;;21.60;nan;101868.50;4862723;29;20461;-90
2022/04/16 09:33:06;;;;;;;6.63;2.30;;;;;;;21.75;nan;101866.09;4848395;29;20475;-90
2022/04/16 09:35:35;;;;;;;4.83;2.07;;;;;;;21.78;nan;101860.06;4864237;29;20934;-90
2022/04/16 09:38:12;;;;;;;6.53;1.80;;;;;;;21.92;nan;101869.91;4878839;29;20496;-90
2022/04/16 09:40:46;;;;;;;7.10;2.10;;;;;;;21.99;nan;101859.47;4863739;29;20966;-92
2022/04/16 09:43:33;;;;;;;6.10;1.90;;;;;;;22.18;nan;101874.13;4831402;29;20463;-92
2022/04/16 09:46:13;;;;;;;3.03;1.80;;;;;;;22.28;nan;101860.47;4861658;29;20435;-92
2022/04/16 09:48:48;;;;;;;6.97;1.90;;;;;;;22.47;nan;101866.72;4833358;29;20462;-94
2022/04/16 09:51:17;;;;;;;5.07;2.67;;;;;;;22.72;nan;101869.19;4845775;29;20459;-90
2022/04/16 09:53:45;;;;;;;6.17;2.27;;;;;;;22.79;nan;101861.56;4838295;29;20458;-91
2022/04/16 09:56:12;;;;;;;9.07;2.73;;;;;;;22.96;nan;101869.97;4878269;29;20447;-90
2022/04/16 09:58:42;;;;;;;5.23;2.70;;;;;;;23.08;nan;101868.00;4864263;29;20501;-91
2022/04/16 10:01:11;;;;;;;4.53;2.30;;;;;;;23.16;nan;101864.81;4879995;29;20458;-89
2022/04/16 10:03:41;;;;;;;4.20;1.70;;;;;;;23.36;nan;101876.34;4863414;29;20454;-85
2022/04/16 10:06:09;;;;;;;7.53;2.67;;;;;;;23.47;nan;101862.59;4847754;29;20466;-88
2022/04/16 10:08:36;;;;;;;6.40;1.83;;;;;;;23.58;nan;101864.47;4862801;29;20984;-88
2022/04/16 10:11:04;;;;;;;5.20;2.00;;;;;;;23.74;nan;101869.22;4863209;29;20462;-89
2022/04/16 10:13:37;;;;;;;7.33;2.27;;;;;;;23.90;nan;101864.72;4847885;29;20446;-88
2022/04/16 10:16:40;;;;;;;6.90;1.93;;;;;;;24.11;nan;101873.16;4863010;29;20477;-87
2022/04/16 10:19:18;;;;;;;3.23;1.90;;;;;;;24.29;nan;101874.00;4844917;29;21125;-87
2022/04/16 10:21:47;;;;;;;4.70;2.20;;;;;;;24.38;nan;101855.69;4844285;29;20507;-85
2022/04/16 10:35:36;;;;;;;7.37;2.57;;;;;;;25.09;nan;101853.78;4860328;29;20813;-86
2022/04/16 10:38:05;;;;;;;7.40;1.67;;;;;;;25.27;nan;101850.59;4844148;29;20518;-86
2022/04/16 10:40:33;;;;;;;4.50;2.30;;;;;;;25.47;nan;101853.59;4859607;29;20590;-86
2022/04/16 10:43:01;;;;;;;4.10;1.80;;;;;;;25.64;nan;101858.25;4874633;29;20464;-86
2022/04/16 10:45:35;;;;;;;5.80;1.60;;;;;;;25.76;nan;101856.97;4874841;29;20447;-86
2022/04/16 10:59:43;;;;;;;2.97;1.40;;;;;;;26.32;nan;101857.38;4860509;29;20597;-86
2022/04/16 11:02:19;;;;;;;4.53;1.47;;;;;;;26.48;nan;101873.16;4841620;29;20451;-86
2022/04/16 11:05:07;;;;;;;4.47;1.63;;;;;;;26.41;nan;101849.25;4828900;29;20462;-85
2022/04/16 11:07:37;;;;;;;7.20;1.50;;;;;;;26.56;nan;101859.69;4845184;29;20522;-84
2022/04/16 11:10:11;;;;;;;4.80;1.40;;;;;;;26.65;nan;101860.88;4842779;29;20460;-85
2022/04/16 11:12:40;;;;;;;5.10;1.60;;;;;;;26.72;nan;101865.13;4843632;29;20459;-85
2022/04/16 11:15:13;;;;;;;7.50;1.77;;;;;;;26.84;nan;101865.72;4849397;29;20463;-86
2022/04/16 11:17:41;;;;;;;6.27;2.33;;;;;;;26.93;nan;101857.63;4844470;29;20459;-86
2022/04/16 11:20:10;;;;;;;5.20;1.90;;;;;;;27.03;nan;101856.84;4857492;29;20539;-86
2022/04/16 11:22:38;;;;;;;1.83;0.93;;;;;;;27.11;nan;101853.50;4831312;29;20459;-86
2022/04/16 11:25:07;;;;;;;5.20;1.47;;;;;;;27.21;nan;101850.69;4835635;29;20518;-86
2022/04/16 11:36:06;;;;;;;7.73;1.63;;;;;;;27.49;nan;101846.53;4857892;29;20463;-85
2022/04/16 11:38:39;;;;;;;11.03;1.40;;;;;;;27.58;nan;101844.84;4863271;29;21010;-85
2022/04/16 11:41:10;;;;;;;6.33;1.67;;;;;;;27.66;nan;101833.06;4832739;29;20503;-85
2022/04/16 11:43:50;;;;;;;5.23;1.27;;;;;;;27.76;nan;101835.84;4789386;29;20450;-86
2022/04/16 11:46:18;;;;;;;4.60;1.40;;;;;;;27.86;nan;101846.25;4759621;30;20465;-86
2022/04/16 11:48:47;;;;;;;3.87;1.37;;;;;;;27.88;nan;101827.16;4788690;30;20458;-86
2022/04/16 11:51:15;;;;;;;3.20;1.30;;;;;;;28.04;nan;101842.00;4787771;30;20461;-85
2022/04/16 11:53:51;;;;;;;10.73;1.90;;;;;;;28.08;nan;101837.50;4773636;30;21070;-86
2022/04/16 11:56:22;;;;;;;2.87;1.20;;;;;;;28.13;nan;101845.91;4787203;30;20520;-85
2022/04/16 11:58:50;;;;;;;3.67;1.70;;;;;;;28.17;nan;101842.25;4788313;30;20486;-86
2022/04/16 12:01:22;;;;;;;9.53;1.80;;;;;;;28.12;nan;101832.97;4810181;29;20459;-85
2022/04/16 12:03:56;;;;;;;8.70;1.53;;;;;;;28.22;nan;101844.25;4847053;29;20470;-86
2022/04/16 12:06:27;;;;;;;7.97;1.80;;;;;;;28.25;nan;101845.66;4848613;29;20464;-88
2022/04/16 12:08:56;;;;;;;9.27;2.10;;;;;;;28.23;nan;101845.94;4863451;29;20947;-92
2022/04/16 12:11:26;;;;;;;4.30;2.00;;;;;;;28.27;nan;101846.22;4829624;29;20455;-86
2022/04/16 12:13:54;;;;;;;8.00;1.73;;;;;;;28.30;nan;101842.81;4823639;29;20474;-86
2022/04/16 12:16:23;;;;;;;4.00;1.60;;;;;;;28.34;nan;101832.66;4832346;29;20447;-87
2022/04/16 12:18:53;;;;;;;3.77;1.60;;;;;;;28.37;nan;101835.75;4871294;29;20493;-86
2022/04/16 12:21:21;;;;;;;6.67;2.53;;;;;;;28.43;nan;101833.78;4850515;29;20453;-86
2022/04/16 12:23:50;;;;;;;5.83;1.90;;;;;;;28.49;nan;101826.97;4835385;29;20512;-87
2022/04/16 12:26:18;;;;;;;4.60;1.60;;;;;;;28.55;nan;101828.66;4833884;29;20475;-86
2022/04/16 12:28:56;;;;;;;7.60;1.80;;;;;;;28.61;nan;101832.28;4818119;29;20451;-85
2022/04/16 12:31:27;;;;;;;3.10;1.43;;;;;;;28.65;nan;101831.44;4871882;29;20451;-86
2022/04/16 12:33:56;;;;;;;4.50;1.60;;;;;;;28.64;nan;101823.28;4833220;29;20455;-86
2022/04/16 12:36:24;;;;;;;4.13;1.63;;;;;;;28.76;nan;101830.25;4816884;29;20497;-87
2022/04/16 12:38:54;;;;;;;3.57;1.93;;;;;;;28.76;nan;101816.16;4816678;29;20483;-86
2022/04/16 12:41:22;;;;;;;5.60;2.10;;;;;;;28.86;nan;101824.56;4817049;29;20451;-86
2022/04/16 12:43:51;;;;;;;4.87;2.03;;;;;;;28.90;nan;101821.19;4816542;29;20455;-86
2022/04/16 12:46:18;;;;;;;7.20;2.10;;;;;;;28.93;nan;101826.22;4816283;29;20864;-86
2022/04/16 12:48:46;;;;;;;4.60;1.73;;;;;;;28.99;nan;101820.28;4831117;29;21026;-86
2022/04/16 12:51:14;;;;;;;8.70;2.10;;;;;;;29.01;nan;101817.19;4816215;29;20966;-86
2022/04/16 12:53:42;;;;;;;6.23;1.73;;;;;;;29.01;nan;101812.41;4846460;29;20443;-86
2022/04/16 12:56:10;;;;;;;7.07;1.87;;;;;;;29.05;nan;101809.84;4816182;29;20982;-86
2022/04/16 12:58:38;;;;;;;6.50;1.77;;;;;;;29.03;nan;101814.94;4816031;29;20479;-86
2022/04/16 13:01:08;;;;;;;5.17;1.60;;;;;;;29.06;nan;101819.94;4817081;29;20451;-86
2022/04/16 13:03:36;;;;;;;5.73;2.07;;;;;;;28.99;nan;101819.44;4830684;29;20961;-86
2022/04/16 13:06:04;;;;;;;4.53;1.63;;;;;;;29.00;nan;101821.13;4862170;29;20455;-86
2022/04/16 13:08:32;;;;;;;3.17;1.83;;;;;;;28.90;nan;101809.91;4815389;29;20462;-86
2022/04/16 13:11:02;;;;;;;4.83;1.60;;;;;;;28.87;nan;101817.81;4845831;29;20470;-86
2022/04/16 13:13:30;;;;;;;4.70;1.80;;;;;;;28.83;nan;101816.72;4862041;29;20476;-86
2022/04/16 13:15:58;;;;;;;8.33;1.40;;;;;;;28.78;nan;101813.91;4830789;29;20459;-86
2022/04/16 13:18:26;;;;;;;7.33;1.77;;;;;;;28.75;nan;101819.28;4850025;29;20487;-86
2022/04/16 13:20:55;;;;;;;6.07;2.03;;;;;;;28.71;nan;101813.38;4848893;29;20801;-87
2022/04/16 13:23:23;;;;;;;4.40;1.60;;;;;;;28.75;nan;101808.84;4848964;29;20524;-86
2022/04/16 13:25:51;;;;;;;10.20;2.00;;;;;;;28.80;nan;101808.88;4834009;29;20827;-86
2022/04/16 13:28:19;;;;;;;3.67;1.40;;;;;;;28.86;nan;101813.31;4834033;29;20457;-86
2022/04/16 13:30:48;;;;;;;8.07;1.93;;;;;;;28.91;nan;101800.34;4863764;29;20561;-87
2022/04/16 13:33:17;;;;;;;5.23;1.70;;;;;;;28.95;nan;101798.63;4849335;29;20454;-86
2022/04/16 13:35:45;;;;;;;6.03;2.20;;;;;;;29.00;nan;101795.78;4848829;29;20451;-86
2022/04/16 13:38:13;;;;;;;5.20;1.60;;;;;;;29.02;nan;101797.19;4879931;29;20988;-87
2022/04/16 13:43:30;;;;;;;5.90;1.93;;;;;;;29.06;nan;101787.00;4853449;29;20463;-86
2022/04/16 13:45:57;;;;;;;7.30;1.63;;;;;;;29.08;nan;101793.19;4879982;29;20459;-86
2022/04/16 13:48:25;;;;;;;7.80;2.07;;;;;;;29.12;nan;101790.63;4848369;29;20469;-87
2022/04/16 13:50:55;;;;;;;6.70;2.13;;;;;;;29.17;nan;101790.59;4833784;29;20972;-86
2022/04/16 13:53:24;;;;;;;11.20;1.80;;;;;;;29.14;nan;101780.75;4863910;29;20454;-86
2022/04/16 13:55:52;;;;;;;3.67;1.70;;;;;;;29.09;nan;101780.78;4848727;29;20454;-86
2022/04/16 13:58:21;;;;;;;11.07;2.43;;;;;;;29.00;nan;101773.28;4833720;29;21029;-85
2022/04/16 14:00:50;;;;;;;7.03;1.70;;;;;;;28.97;nan;101766.25;4848649;29;20530;-87
2022/04/16 14:03:19;;;;;;;2.97;1.40;;;;;;;29.05;nan;101764.81;4880051;29;20454;-87
2022/04/16 14:05:47;;;;;;;8.20;2.47;;;;;;;29.09;nan;101752.63;4848615;29;20819;-86
2022/04/16 14:08:18;;;;;;;8.73;2.00;;;;;;;29.18;nan;101750.88;4863611;29;20458;-86
2022/04/16 14:10:47;;;;;;;5.40;1.60;;;;;;;29.23;nan;101746.34;4848991;29;20503;-86
2022/04/16 14:13:16;;;;;;;16.23;2.27;;;;;;;29.30;nan;101742.03;4833792;29;20458;-86
2022/04/16 14:15:45;;;;;;;6.23;1.93;;;;;;;29.36;nan;101740.88;4863253;29;20446;-86
2022/04/16 14:18:14;;;;;;;6.50;1.73;;;;;;;29.43;nan;101741.41;4863233;29;20478;-86
2022/04/16 14:20:42;;;;;;;5.70;1.83;;;;;;;29.46;nan;101734.31;4879497;29;20859;-86
2022/04/16 14:23:12;;;;;;;5.03;2.30;;;;;;;29.51;nan;101735.13;4848141;29;20485;-86
2022/04/16 14:25:41;;;;;;;6.20;1.73;;;;;;;29.58;nan;101722.66;4831628;29;20965;-86
2022/04/16 14:28:11;;;;;;;4.10;2.00;;;;;;;29.69;nan;101721.41;4828536;29;20921;-85
2022/04/16 14:30:40;;;;;;;6.63;2.50;;;;;;;29.73;nan;101722.50;4843334;29;20514;-85
2022/04/16 14:33:10;;;;;;;6.40;1.80;;;;;;;29.75;nan;101721.06;4844733;29;20507;-86
2022/04/16 14:35:38;;;;;;;10.43;2.20;;;;;;;29.82;nan;101720.72;4844731;29;20462;-86
2022/04/16 14:38:12;;;;;;;9.00;1.90;;;;;;;29.85;nan;101709.66;4843690;29;20807;-87
2022/04/16 14:40:43;;;;;;;6.57;1.60;;;;;;;29.94;nan;101701.38;4844981;29;20491;-86
2022/04/16 14:43:13;;;;;;;5.10;1.90;;;;;;;30.03;nan;101702.41;4859751;29;20447;-87
2022/04/16 14:45:42;;;;;;;6.03;1.90;;;;;;;30.10;nan;101694.44;4786207;30;20462;-86
2022/04/16 14:48:10;;;;;;;6.23;2.10;;;;;;;30.19;nan;101692.63;4742408;30;20820;-87
2022/04/16 14:50:38;;;;;;;11.80;2.10;;;;;;;30.26;nan;101682.94;4756794;30;20450;-87
2022/04/16 14:53:08;;;;;;;6.90;2.10;;;;;;;30.33;nan;101672.13;4756588;30;20482;-86
2022/04/16 14:55:37;;;;;;;5.00;2.23;;;;;;;30.53;nan;101695.25;4732596;30;20465;-86
2022/04/16 14:58:05;;;;;;;10.40;3.80;;;;;;;30.53;nan;101675.50;4706670;30;20987;-86
2022/04/16 15:00:33;;;;;;;11.93;3.93;;;;;;;30.37;nan;101676.88;4707597;30;21017;-86
2022/04/16 15:03:02;;;;;;;9.90;3.70;;;;;;;30.24;nan;101684.09;4729932;30;20459;-86
2022/04/16 15:05:30;;;;;;;11.13;3.77;;;;;;;30.01;nan;101672.88;4789693;30;20452;-86
2022/04/16 15:08:03;;;;;;;10.40;3.80;;;;;;;29.63;nan;101680.34;4775263;30;20905;-86
2022/04/16 15:10:30;;;;;;;9.60;3.33;;;;;;;29.26;nan;101672.50;4774804;30;20454;-86
2022/04/16 15:12:58;;;;;;;8.40;3.70;;;;;;;29.34;nan;101667.06;4801713;29;20446;-86
2022/04/16 15:15:27;;;;;;;7.87;3.40;;;;;;;29.38;nan;101662.53;4847766;29;20835;-86
2022/04/16 15:17:55;;;;;;;9.17;3.30;;;;;;;29.48;nan;101667.25;4862409;29;20860;-86
2022/04/16 15:20:25;;;;;;;11.53;3.97;;;;;;;29.53;nan;101656.75;4847209;29;20494;-86
2022/04/16 15:22:54;;;;;;;7.00;3.23;;;;;;;29.50;nan;101648.91;4833119;29;20862;-86
2022/04/16 15:25:22;;;;;;;8.10;3.70;;;;;;;29.61;nan;101662.88;4863033;29;20465;-86
2022/04/16 15:27:50;;;;;;;11.63;4.60;;;;;;;29.59;nan;101653.91;4847487;29;20458;-86
2022/04/16 15:30:18;;;;;;;10.43;3.50;;;;;;;29.64;nan;101660.28;4862586;29;20841;-86
2022/04/16 15:32:47;;;;;;;9.60;3.20;;;;;;;29.63;nan;101649.34;4847531;29;20462;-86
2022/04/16 15:35:23;;;;;;;12.30;3.90;;;;;;;29.65;nan;101655.50;4862756;29;20946;-86
2022/04/16 15:37:52;;;;;;;15.20;3.57;;;;;;;29.56;nan;101652.50;4847629;29;20962;-86
2022/04/16 15:40:21;;;;;;;16.10;3.90;;;;;;;29.53;nan;101645.50;4831892;29;20498;-86
2022/04/16 15:43:12;;;;;;;8.97;3.90;;;;;;;29.58;nan;101646.56;4847325;29;20465;-86
2022/04/16 15:45:40;;;;;;;12.13;3.63;;;;;;;29.48;nan;101659.63;4862413;29;20946;-86
2022/04/16 15:48:07;;;;;;;10.83;4.00;;;;;;;29.31;nan;101652.75;4847216;29;20477;-86
2022/04/16 15:50:37;;;;;;;11.70;3.30;;;;;;;28.93;nan;101626.38;4862362;29;20817;-86
2022/04/16 15:53:05;;;;;;;12.17;4.03;;;;;;;28.93;nan;101646.06;4863517;29;20450;-87
2022/04/16 15:55:34;;;;;;;11.60;4.20;;;;;;;28.96;nan;101651.97;4847163;29;20462;-87
2022/04/16 15:58:04;;;;;;;7.87;3.67;;;;;;;29.04;nan;101645.69;4862563;29;20447;-87
2022/04/16 16:00:32;;;;;;;16.83;4.53;;;;;;;29.08;nan;101645.94;4847089;29;20486;-87
2022/04/16 16:03:01;;;;;;;11.87;4.37;;;;;;;28.91;nan;101653.97;4847197;29;20447;-87
2022/04/16 16:05:29;;;;;;;17.90;4.40;;;;;;;28.65;nan;101645.72;4846486;29;20447;-87
2022/04/16 16:07:59;;;;;;;10.03;3.90;;;;;;;28.56;nan;101635.38;4831685;29;20451;-87
2022/04/16 16:10:27;;;;;;;15.07;4.10;;;;;;;28.52;nan;101638.75;4861928;29;20562;-87
2022/04/16 16:12:56;;;;;;;8.57;4.47;;;;;;;28.49;nan;101644.13;4846987;29;20459;-87
2022/04/16 16:15:24;;;;;;;11.80;4.37;;;;;;;28.44;nan;101649.81;4831780;29;20447;-87
2022/04/16 16:17:51;;;;;;;10.87;3.60;;;;;;;28.32;nan;101632.44;4877098;29;20451;-87